sensor_id;sensor_type;location;lat;lon;timestamp;temperature;humidity
71396;DHT22;59888;55.814;37.132;2023-07-22T00:01:49;16.28;52.84
71396;DHT22;59888;55.814;37.132;2023-07-22T00:04:15;16.29;52.11
71396;DHT22;59888;55.814;37.132;2023-07-22T00:06:41;16.31;51.87
71396;DHT22;59888;55.814;37.132;2023-07-22T00:09:07;16.31;51.77
71396;DHT22;59888;55.814;37.132;2023-07-22T00:11:33;16.27;52.11
71396;DHT22;59888;55.814;37.132;2023-07-22T00:13:59;16.26;51.77
71396;DHT22;59888;55.814;37.132;2023-07-22T00:16:25;16.27;50.18
71396;DHT22;59888;55.814;37.132;2023-07-22T00:18:51;16.19;51.62
71396;DHT22;59888;55.814;37.132;2023-07-22T00:21:18;16.18;52.01
71396;DHT22;59888;55.814;37.132;2023-07-22T00:23:49;16.14;53.92
71396;DHT22;59888;55.814;37.132;2023-07-22T00:26:15;16.08;53.94
71396;DHT22;59888;55.814;37.132;2023-07-22T00:28:41;16.03;51.84
71396;DHT22;59888;55.814;37.132;2023-07-22T00:31:09;16.05;53.03
71396;DHT22;59888;55.814;37.132;2023-07-22T00:33:35;16.13;52.76
71396;DHT22;59888;55.814;37.132;2023-07-22T00:36:01;16.14;51.53
71396;DHT22;59888;55.814;37.132;2023-07-22T00:38:27;16.13;52.54
71396;DHT22;59888;55.814;37.132;2023-07-22T00:40:54;16.14;51.82
71396;DHT22;59888;55.814;37.132;2023-07-22T00:43:20;16.14;53.32
71396;DHT22;59888;55.814;37.132;2023-07-22T00:45:46;16.08;52.63
71396;DHT22;59888;55.814;37.132;2023-07-22T00:48:13;16.08;53.67
71396;DHT22;59888;55.814;37.132;2023-07-22T00:50:40;15.98;53.64
71396;DHT22;59888;55.814;37.132;2023-07-22T00:53:06;15.97;53.26
71396;DHT22;59888;55.814;37.132;2023-07-22T00:55:33;16.00;54.10
71396;DHT22;59888;55.814;37.132;2023-07-22T00:58:01;15.98;52.75
71396;DHT22;59888;55.814;37.132;2023-07-22T01:00:27;15.96;53.23
71396;DHT22;59888;55.814;37.132;2023-07-22T01:02:53;15.92;53.31
71396;DHT22;59888;55.814;37.132;2023-07-22T01:05:19;15.95;52.95
71396;DHT22;59888;55.814;37.132;2023-07-22T01:07:45;15.97;53.34
71396;DHT22;59888;55.814;37.132;2023-07-22T01:10:13;15.98;53.04
71396;DHT22;59888;55.814;37.132;2023-07-22T01:12:44;15.99;53.46
71396;DHT22;59888;55.814;37.132;2023-07-22T01:15:13;15.99;54.26
71396;DHT22;59888;55.814;37.132;2023-07-22T01:17:39;15.95;53.73
71396;DHT22;59888;55.814;37.132;2023-07-22T01:20:06;15.90;53.32
71396;DHT22;59888;55.814;37.132;2023-07-22T01:22:33;15.90;52.97
71396;DHT22;59888;55.814;37.132;2023-07-22T01:25:01;15.88;53.67
71396;DHT22;59888;55.814;37.132;2023-07-22T01:27:31;15.87;54.76
71396;DHT22;59888;55.814;37.132;2023-07-22T01:29:57;15.87;53.89
71396;DHT22;59888;55.814;37.132;2023-07-22T01:32:23;15.86;53.85
71396;DHT22;59888;55.814;37.132;2023-07-22T01:34:49;15.88;53.12
71396;DHT22;59888;55.814;37.132;2023-07-22T01:37:16;15.93;53.46
71396;DHT22;59888;55.814;37.132;2023-07-22T01:39:42;15.88;53.29
71396;DHT22;59888;55.814;37.132;2023-07-22T01:42:09;15.85;53.19
71396;DHT22;59888;55.814;37.132;2023-07-22T01:44:35;15.85;53.97
71396;DHT22;59888;55.814;37.132;2023-07-22T01:47:04;15.82;54.71
71396;DHT22;59888;55.814;37.132;2023-07-22T01:49:30;15.87;53.87
71396;DHT22;59888;55.814;37.132;2023-07-22T01:51:56;15.88;53.97
71396;DHT22;59888;55.814;37.132;2023-07-22T01:54:22;15.91;53.91
71396;DHT22;59888;55.814;37.132;2023-07-22T01:56:48;15.95;53.81
71396;DHT22;59888;55.814;37.132;2023-07-22T01:59:14;15.93;53.29
71396;DHT22;59888;55.814;37.132;2023-07-22T02:01:40;15.92;54.18
71396;DHT22;59888;55.814;37.132;2023-07-22T02:04:06;15.96;53.88
71396;DHT22;59888;55.814;37.132;2023-07-22T02:06:32;15.99;54.44
71396;DHT22;59888;55.814;37.132;2023-07-22T02:08:58;16.03;54.04
71396;DHT22;59888;55.814;37.132;2023-07-22T02:11:24;16.06;52.91
71396;DHT22;59888;55.814;37.132;2023-07-22T02:13:51;16.12;53.61
71396;DHT22;59888;55.814;37.132;2023-07-22T02:16:17;16.12;53.46
71396;DHT22;59888;55.814;37.132;2023-07-22T02:18:44;16.12;53.85
71396;DHT22;59888;55.814;37.132;2023-07-22T02:21:10;16.16;53.95
71396;DHT22;59888;55.814;37.132;2023-07-22T02:23:41;16.17;54.24
71396;DHT22;59888;55.814;37.132;2023-07-22T02:26:07;16.13;53.62
71396;DHT22;59888;55.814;37.132;2023-07-22T02:28:33;16.11;53.62
71396;DHT22;59888;55.814;37.132;2023-07-22T02:31:02;16.10;54.37
71396;DHT22;59888;55.814;37.132;2023-07-22T02:33:36;16.11;55.04
71396;DHT22;59888;55.814;37.132;2023-07-22T02:36:03;16.18;53.60
71396;DHT22;59888;55.814;37.132;2023-07-22T02:38:29;16.22;54.54
71396;DHT22;59888;55.814;37.132;2023-07-22T02:41:01;16.22;56.44
71396;DHT22;59888;55.814;37.132;2023-07-22T02:43:28;16.22;54.16
71396;DHT22;59888;55.814;37.132;2023-07-22T02:45:53;16.28;54.35
71396;DHT22;59888;55.814;37.132;2023-07-22T02:48:19;16.34;53.15
71396;DHT22;59888;55.814;37.132;2023-07-22T02:50:45;16.36;53.04
71396;DHT22;59888;55.814;37.132;2023-07-22T02:53:11;16.44;54.46
71396;DHT22;59888;55.814;37.132;2023-07-22T02:55:38;16.42;53.59
71396;DHT22;59888;55.814;37.132;2023-07-22T02:58:04;16.51;53.63
71396;DHT22;59888;55.814;37.132;2023-07-22T03:00:31;16.60;54.34
71396;DHT22;59888;55.814;37.132;2023-07-22T03:02:57;16.69;54.29
71396;DHT22;59888;55.814;37.132;2023-07-22T03:05:29;16.75;53.00
71396;DHT22;59888;55.814;37.132;2023-07-22T03:07:56;16.79;53.65
71396;DHT22;59888;55.814;37.132;2023-07-22T03:10:23;16.80;53.27
71396;DHT22;59888;55.814;37.132;2023-07-22T03:16:39;17.03;54.67
71396;DHT22;59888;55.814;37.132;2023-07-22T03:19:07;17.01;53.96
71396;DHT22;59888;55.814;37.132;2023-07-22T03:21:33;17.08;53.27
71396;DHT22;59888;55.814;37.132;2023-07-22T03:23:59;17.19;52.66
71396;DHT22;59888;55.814;37.132;2023-07-22T03:26:25;17.20;54.07
71396;DHT22;59888;55.814;37.132;2023-07-22T03:28:51;17.15;53.94
71396;DHT22;59888;55.814;37.132;2023-07-22T03:31:17;17.07;53.27
71396;DHT22;59888;55.814;37.132;2023-07-22T03:33:44;17.02;53.52
71396;DHT22;59888;55.814;37.132;2023-07-22T03:36:11;17.04;52.44
71396;DHT22;59888;55.814;37.132;2023-07-22T03:38:38;17.09;53.68
71396;DHT22;59888;55.814;37.132;2023-07-22T03:41:04;17.00;54.71
71396;DHT22;59888;55.814;37.132;2023-07-22T03:43:30;17.06;53.62
71396;DHT22;59888;55.814;37.132;2023-07-22T03:45:56;17.05;54.52
71396;DHT22;59888;55.814;37.132;2023-07-22T03:48:22;17.07;55.90
71396;DHT22;59888;55.814;37.132;2023-07-22T03:50:48;16.99;55.00
71396;DHT22;59888;55.814;37.132;2023-07-22T03:53:14;17.06;55.01
71396;DHT22;59888;55.814;37.132;2023-07-22T03:55:40;17.18;53.65
71396;DHT22;59888;55.814;37.132;2023-07-22T03:58:06;17.25;54.30
71396;DHT22;59888;55.814;37.132;2023-07-22T04:00:32;17.34;53.99
71396;DHT22;59888;55.814;37.132;2023-07-22T04:03:01;17.47;53.86
71396;DHT22;59888;55.814;37.132;2023-07-22T04:05:27;17.45;54.19
71396;DHT22;59888;55.814;37.132;2023-07-22T04:07:53;17.62;53.35
71396;DHT22;59888;55.814;37.132;2023-07-22T04:10:19;17.84;53.23
71396;DHT22;59888;55.814;37.132;2023-07-22T04:12:46;17.96;52.24
71396;DHT22;59888;55.814;37.132;2023-07-22T04:15:11;18.08;52.24
71396;DHT22;59888;55.814;37.132;2023-07-22T04:17:38;18.25;51.99
71396;DHT22;59888;55.814;37.132;2023-07-22T04:20:05;18.38;51.46
71396;DHT22;59888;55.814;37.132;2023-07-22T04:22:33;18.24;52.76
71396;DHT22;59888;55.814;37.132;2023-07-22T04:24:59;18.06;52.32
71396;DHT22;59888;55.814;37.132;2023-07-22T04:27:27;17.93;54.39
71396;DHT22;59888;55.814;37.132;2023-07-22T04:29:53;17.78;54.10
71396;DHT22;59888;55.814;37.132;2023-07-22T04:32:20;17.90;53.63
71396;DHT22;59888;55.814;37.132;2023-07-22T04:34:46;18.15;52.53
71396;DHT22;59888;55.814;37.132;2023-07-22T04:37:12;18.48;51.30
71396;DHT22;59888;55.814;37.132;2023-07-22T04:39:39;18.71;51.71
71396;DHT22;59888;55.814;37.132;2023-07-22T04:42:05;18.84;50.74
71396;DHT22;59888;55.814;37.132;2023-07-22T04:44:36;18.95;51.35
71396;DHT22;59888;55.814;37.132;2023-07-22T04:47:03;19.05;50.08
71396;DHT22;59888;55.814;37.132;2023-07-22T04:49:29;18.97;50.63
71396;DHT22;59888;55.814;37.132;2023-07-22T04:51:55;18.87;50.99
71396;DHT22;59888;55.814;37.132;2023-07-22T04:54:22;18.77;50.87
71396;DHT22;59888;55.814;37.132;2023-07-22T04:56:47;18.66;51.41
71396;DHT22;59888;55.814;37.132;2023-07-22T05:09:36;18.87;51.64
71396;DHT22;59888;55.814;37.132;2023-07-22T05:12:03;19.05;52.10
71396;DHT22;59888;55.814;37.132;2023-07-22T05:14:29;19.05;50.63
71396;DHT22;59888;55.814;37.132;2023-07-22T05:16:55;19.13;51.06
71396;DHT22;59888;55.814;37.132;2023-07-22T05:19:21;19.18;51.50
71396;DHT22;59888;55.814;37.132;2023-07-22T05:21:47;19.10;51.29
71396;DHT22;59888;55.814;37.132;2023-07-22T05:24:13;19.22;50.69
71396;DHT22;59888;55.814;37.132;2023-07-22T05:26:39;19.24;50.70
71396;DHT22;59888;55.814;37.132;2023-07-22T05:29:04;19.32;51.13
71396;DHT22;59888;55.814;37.132;2023-07-22T05:31:33;19.36;50.66
71396;DHT22;59888;55.814;37.132;2023-07-22T05:33:59;19.45;50.32
71396;DHT22;59888;55.814;37.132;2023-07-22T05:36:25;19.57;50.30
71396;DHT22;59888;55.814;37.132;2023-07-22T05:38:51;19.79;50.41
71396;DHT22;59888;55.814;37.132;2023-07-22T05:41:17;19.87;49.76
71396;DHT22;59888;55.814;37.132;2023-07-22T05:43:43;19.99;49.58
71396;DHT22;59888;55.814;37.132;2023-07-22T05:46:09;20.16;49.31
71396;DHT22;59888;55.814;37.132;2023-07-22T05:48:35;20.24;48.87
71396;DHT22;59888;55.814;37.132;2023-07-22T05:51:01;20.34;48.87
71396;DHT22;59888;55.814;37.132;2023-07-22T05:53:27;20.41;48.48
71396;DHT22;59888;55.814;37.132;2023-07-22T05:55:53;20.43;48.51
71396;DHT22;59888;55.814;37.132;2023-07-22T05:58:19;20.46;48.66
71396;DHT22;59888;55.814;37.132;2023-07-22T06:00:45;20.66;48.15
71396;DHT22;59888;55.814;37.132;2023-07-22T06:03:14;20.85;47.89
71396;DHT22;59888;55.814;37.132;2023-07-22T06:05:40;20.91;48.08
71396;DHT22;59888;55.814;37.132;2023-07-22T06:08:06;20.87;47.78
71396;DHT22;59888;55.814;37.132;2023-07-22T06:10:32;20.95;47.36
71396;DHT22;59888;55.814;37.132;2023-07-22T06:12:58;20.98;47.29
71396;DHT22;59888;55.814;37.132;2023-07-22T06:15:24;21.06;47.27
71396;DHT22;59888;55.814;37.132;2023-07-22T06:17:50;21.13;47.07
71396;DHT22;59888;55.814;37.132;2023-07-22T06:20:16;21.18;45.67
71396;DHT22;59888;55.814;37.132;2023-07-22T06:22:42;21.14;46.06
71396;DHT22;59888;55.814;37.132;2023-07-22T06:25:08;21.19;45.65
71396;DHT22;59888;55.814;37.132;2023-07-22T06:27:34;21.06;45.93
71396;DHT22;59888;55.814;37.132;2023-07-22T06:30:01;21.03;46.06
71396;DHT22;59888;55.814;37.132;2023-07-22T06:32:32;21.11;46.28
71396;DHT22;59888;55.814;37.132;2023-07-22T06:34:58;21.17;45.93
71396;DHT22;59888;55.814;37.132;2023-07-22T06:37:24;21.18;46.10
71396;DHT22;59888;55.814;37.132;2023-07-22T06:39:50;21.45;45.83
71396;DHT22;59888;55.814;37.132;2023-07-22T06:42:16;21.53;45.41
71396;DHT22;59888;55.814;37.132;2023-07-22T06:44:43;21.51;44.65
71396;DHT22;59888;55.814;37.132;2023-07-22T06:47:09;21.37;44.91
71396;DHT22;59888;55.814;37.132;2023-07-22T06:49:35;21.34;44.88
71396;DHT22;59888;55.814;37.132;2023-07-22T06:52:02;21.16;43.63
71396;DHT22;59888;55.814;37.132;2023-07-22T06:54:31;21.11;44.67
71396;DHT22;59888;55.814;37.132;2023-07-22T06:57:00;21.27;44.72
71396;DHT22;59888;55.814;37.132;2023-07-22T06:59:26;21.49;44.18
71396;DHT22;59888;55.814;37.132;2023-07-22T07:01:52;21.54;44.11
71396;DHT22;59888;55.814;37.132;2023-07-22T07:04:18;21.75;44.35
71396;DHT22;59888;55.814;37.132;2023-07-22T07:06:45;21.99;44.01
71396;DHT22;59888;55.814;37.132;2023-07-22T07:09:12;22.23;43.29
71396;DHT22;59888;55.814;37.132;2023-07-22T07:11:38;22.36;41.21
71396;DHT22;59888;55.814;37.132;2023-07-22T07:14:04;22.36;42.76
71396;DHT22;59888;55.814;37.132;2023-07-22T07:16:31;22.53;41.38
71396;DHT22;59888;55.814;37.132;2023-07-22T07:18:58;22.36;41.24
71396;DHT22;59888;55.814;37.132;2023-07-22T07:21:25;22.37;42.42
71396;DHT22;59888;55.814;37.132;2023-07-22T07:23:51;22.63;42.23
71396;DHT22;59888;55.814;37.132;2023-07-22T07:26:18;22.86;42.45
71396;DHT22;59888;55.814;37.132;2023-07-22T07:28:46;23.08;40.92
71396;DHT22;59888;55.814;37.132;2023-07-22T07:31:12;22.94;40.29
71396;DHT22;59888;55.814;37.132;2023-07-22T07:33:38;22.78;41.52
71396;DHT22;59888;55.814;37.132;2023-07-22T07:36:04;22.80;41.59
71396;DHT22;59888;55.814;37.132;2023-07-22T07:38:31;22.72;39.88
71396;DHT22;59888;55.814;37.132;2023-07-22T07:41:05;22.53;40.55
71396;DHT22;59888;55.814;37.132;2023-07-22T07:43:35;22.57;41.41
71396;DHT22;59888;55.814;37.132;2023-07-22T07:46:18;22.64;40.97
71396;DHT22;59888;55.814;37.132;2023-07-22T07:48:47;22.63;40.71
71396;DHT22;59888;55.814;37.132;2023-07-22T07:51:14;22.77;41.52
71396;DHT22;59888;55.814;37.132;2023-07-22T07:53:41;22.81;40.59
71396;DHT22;59888;55.814;37.132;2023-07-22T07:56:10;22.53;39.92
71396;DHT22;59888;55.814;37.132;2023-07-22T07:58:36;22.40;40.41
71396;DHT22;59888;55.814;37.132;2023-07-22T08:01:06;22.43;39.84
71396;DHT22;59888;55.814;37.132;2023-07-22T08:03:33;22.52;40.48
71396;DHT22;59888;55.814;37.132;2023-07-22T08:06:02;22.51;40.01
71396;DHT22;59888;55.814;37.132;2023-07-22T08:08:29;22.58;39.65
71396;DHT22;59888;55.814;37.132;2023-07-22T08:11:03;22.68;38.59
71396;DHT22;59888;55.814;37.132;2023-07-22T08:13:29;22.82;40.10
71396;DHT22;59888;55.814;37.132;2023-07-22T08:15:58;22.95;39.61
71396;DHT22;59888;55.814;37.132;2023-07-22T08:18:24;22.95;39.13
71396;DHT22;59888;55.814;37.132;2023-07-22T08:20:52;23.08;38.64
71396;DHT22;59888;55.814;37.132;2023-07-22T08:23:19;23.25;36.62
71396;DHT22;59888;55.814;37.132;2023-07-22T08:25:45;23.27;38.88
71396;DHT22;59888;55.814;37.132;2023-07-22T08:28:16;23.35;38.03
71396;DHT22;59888;55.814;37.132;2023-07-22T08:30:43;23.45;38.08
71396;DHT22;59888;55.814;37.132;2023-07-22T08:33:11;23.52;38.49
71396;DHT22;59888;55.814;37.132;2023-07-22T08:35:38;23.68;38.75
71396;DHT22;59888;55.814;37.132;2023-07-22T08:38:07;23.85;38.50
71396;DHT22;59888;55.814;37.132;2023-07-22T08:40:38;23.97;37.56
71396;DHT22;59888;55.814;37.132;2023-07-22T08:43:07;23.96;36.43
71396;DHT22;59888;55.814;37.132;2023-07-22T08:45:36;23.80;36.91
71396;DHT22;59888;55.814;37.132;2023-07-22T08:48:06;23.73;36.69
71396;DHT22;59888;55.814;37.132;2023-07-22T08:50:42;23.72;36.77
71396;DHT22;59888;55.814;37.132;2023-07-22T08:53:13;23.70;36.46
71396;DHT22;59888;55.814;37.132;2023-07-22T08:55:39;23.73;37.14
71396;DHT22;59888;55.814;37.132;2023-07-22T08:58:09;23.76;36.84
71396;DHT22;59888;55.814;37.132;2023-07-22T09:00:37;23.84;36.98
71396;DHT22;59888;55.814;37.132;2023-07-22T09:03:03;24.01;37.05
71396;DHT22;59888;55.814;37.132;2023-07-22T09:05:36;24.15;36.75
71396;DHT22;59888;55.814;37.132;2023-07-22T09:08:04;24.19;35.40
71396;DHT22;59888;55.814;37.132;2023-07-22T09:10:30;24.31;35.13
71396;DHT22;59888;55.814;37.132;2023-07-22T09:12:56;24.40;36.18
71396;DHT22;59888;55.814;37.132;2023-07-22T09:15:22;24.45;35.32
71396;DHT22;59888;55.814;37.132;2023-07-22T09:17:50;24.46;35.89
71396;DHT22;59888;55.814;37.132;2023-07-22T09:20:16;24.51;35.72
71396;DHT22;59888;55.814;37.132;2023-07-22T09:22:47;24.49;34.72
71396;DHT22;59888;55.814;37.132;2023-07-22T09:25:17;24.45;34.33
71396;DHT22;59888;55.814;37.132;2023-07-22T09:27:50;24.42;32.01
71396;DHT22;59888;55.814;37.132;2023-07-22T09:32:51;24.46;34.60
71396;DHT22;59888;55.814;37.132;2023-07-22T09:35:18;24.63;35.03
71396;DHT22;59888;55.814;37.132;2023-07-22T09:37:45;24.55;35.05
71396;DHT22;59888;55.814;37.132;2023-07-22T09:40:25;24.47;33.14
71396;DHT22;59888;55.814;37.132;2023-07-22T09:42:56;24.20;32.86
71396;DHT22;59888;55.814;37.132;2023-07-22T09:45:24;24.26;34.55
71396;DHT22;59888;55.814;37.132;2023-07-22T09:51:52;23.96;34.41
71396;DHT22;59888;55.814;37.132;2023-07-22T09:54:21;24.00;35.49
71396;DHT22;59888;55.814;37.132;2023-07-22T09:56:49;24.04;35.54
71396;DHT22;59888;55.814;37.132;2023-07-22T10:03:15;24.50;35.13
71396;DHT22;59888;55.814;37.132;2023-07-22T10:05:42;24.58;33.53
71396;DHT22;59888;55.814;37.132;2023-07-22T10:08:10;24.58;32.67
71396;DHT22;59888;55.814;37.132;2023-07-22T10:10:38;24.68;34.16
71396;DHT22;59888;55.814;37.132;2023-07-22T10:13:05;24.61;31.89
71396;DHT22;59888;55.814;37.132;2023-07-22T10:15:32;24.72;33.75
71396;DHT22;59888;55.814;37.132;2023-07-22T10:18:03;24.74;33.02
71396;DHT22;59888;55.814;37.132;2023-07-22T10:20:30;24.87;33.26
71396;DHT22;59888;55.814;37.132;2023-07-22T10:23:00;24.92;32.30
71396;DHT22;59888;55.814;37.132;2023-07-22T10:25:26;24.97;32.88
71396;DHT22;59888;55.814;37.132;2023-07-22T10:27:54;24.98;31.03
71396;DHT22;59888;55.814;37.132;2023-07-22T10:30:20;25.00;29.61
71396;DHT22;59888;55.814;37.132;2023-07-22T10:32:48;24.98;31.06
71396;DHT22;59888;55.814;37.132;2023-07-22T10:38:07;24.86;29.51
71396;DHT22;59888;55.814;37.132;2023-07-22T10:40:49;24.85;31.17
71396;DHT22;59888;55.814;37.132;2023-07-22T10:43:33;25.02;31.77
71396;DHT22;59888;55.814;37.132;2023-07-22T10:46:09;24.95;31.02
71396;DHT22;59888;55.814;37.132;2023-07-22T10:48:37;25.14;32.31
71396;DHT22;59888;55.814;37.132;2023-07-22T10:51:09;25.35;30.82
71396;DHT22;59888;55.814;37.132;2023-07-22T10:53:43;25.28;29.77
71396;DHT22;59888;55.814;37.132;2023-07-22T10:56:16;25.24;30.52
71396;DHT22;59888;55.814;37.132;2023-07-22T11:07:06;24.87;28.01
71396;DHT22;59888;55.814;37.132;2023-07-22T11:09:36;25.03;30.11
71396;DHT22;59888;55.814;37.132;2023-07-22T11:12:11;25.12;30.08
71396;DHT22;59888;55.814;37.132;2023-07-22T11:14:45;25.08;29.81
71396;DHT22;59888;55.814;37.132;2023-07-22T11:17:12;24.94;30.16
71396;DHT22;59888;55.814;37.132;2023-07-22T11:19:39;24.79;29.90
71396;DHT22;59888;55.814;37.132;2023-07-22T11:22:05;24.73;30.75
71396;DHT22;59888;55.814;37.132;2023-07-22T11:24:33;24.82;31.65
71396;DHT22;59888;55.814;37.132;2023-07-22T11:27:04;24.84;31.12
71396;DHT22;59888;55.814;37.132;2023-07-22T11:29:31;24.84;30.48
71396;DHT22;59888;55.814;37.132;2023-07-22T11:31:57;24.76;31.28
71396;DHT22;59888;55.814;37.132;2023-07-22T11:34:24;24.83;31.77
71396;DHT22;59888;55.814;37.132;2023-07-22T11:36:52;24.85;31.67
71396;DHT22;59888;55.814;37.132;2023-07-22T11:39:21;24.82;30.67
71396;DHT22;59888;55.814;37.132;2023-07-22T11:41:48;24.73;31.36
71396;DHT22;59888;55.814;37.132;2023-07-22T11:44:17;24.71;30.83
71396;DHT22;59888;55.814;37.132;2023-07-22T11:49:29;24.87;31.37
71396;DHT22;59888;55.814;37.132;2023-07-22T11:52:00;24.95;30.79
71396;DHT22;59888;55.814;37.132;2023-07-22T11:54:27;25.07;30.93
71396;DHT22;59888;55.814;37.132;2023-07-22T11:56:54;24.98;31.34
71396;DHT22;59888;55.814;37.132;2023-07-22T11:59:38;25.17;31.28
71396;DHT22;59888;55.814;37.132;2023-07-22T12:02:05;24.97;30.96
71396;DHT22;59888;55.814;37.132;2023-07-22T12:04:33;24.94;31.29
71396;DHT22;59888;55.814;37.132;2023-07-22T12:07:01;24.73;31.10
71396;DHT22;59888;55.814;37.132;2023-07-22T12:09:27;24.59;31.25
71396;DHT22;59888;55.814;37.132;2023-07-22T12:11:58;24.31;31.57
71396;DHT22;59888;55.814;37.132;2023-07-22T12:14:32;24.33;32.86
71396;DHT22;59888;55.814;37.132;2023-07-22T12:17:01;24.04;33.63
71396;DHT22;59888;55.814;37.132;2023-07-22T12:19:30;23.90;33.41
71396;DHT22;59888;55.814;37.132;2023-07-22T12:21:56;23.90;33.27
71396;DHT22;59888;55.814;37.132;2023-07-22T12:24:22;24.08;33.22
71396;DHT22;59888;55.814;37.132;2023-07-22T12:26:51;24.32;33.22
71396;DHT22;59888;55.814;37.132;2023-07-22T12:29:17;24.68;32.82
71396;DHT22;59888;55.814;37.132;2023-07-22T12:31:43;25.08;32.18
71396;DHT22;59888;55.814;37.132;2023-07-22T12:34:09;25.21;30.06
71396;DHT22;59888;55.814;37.132;2023-07-22T12:36:35;25.05;30.15
71396;DHT22;59888;55.814;37.132;2023-07-22T12:39:01;25.21;31.18
71396;DHT22;59888;55.814;37.132;2023-07-22T12:41:27;25.38;30.71
71396;DHT22;59888;55.814;37.132;2023-07-22T12:43:53;25.59;30.92
71396;DHT22;59888;55.814;37.132;2023-07-22T12:46:22;25.74;31.04
71396;DHT22;59888;55.814;37.132;2023-07-22T12:48:48;25.49;29.06
71396;DHT22;59888;55.814;37.132;2023-07-22T12:51:14;25.28;30.91
71396;DHT22;59888;55.814;37.132;2023-07-22T12:53:41;25.03;30.02
71396;DHT22;59888;55.814;37.132;2023-07-22T12:56:07;24.65;31.06
71396;DHT22;59888;55.814;37.132;2023-07-22T12:58:33;24.53;31.64
71396;DHT22;59888;55.814;37.132;2023-07-22T13:00:59;24.73;32.12
71396;DHT22;59888;55.814;37.132;2023-07-22T13:03:25;25.01;32.05
71396;DHT22;59888;55.814;37.132;2023-07-22T13:05:51;25.89;32.09
71396;DHT22;59888;55.814;37.132;2023-07-22T13:08:18;0.00;29.94
71396;DHT22;59888;55.814;37.132;2023-07-22T13:10:43;29.47;27.32
71396;DHT22;59888;55.814;37.132;2023-07-22T13:13:12;31.01;23.76
71396;DHT22;59888;55.814;37.132;2023-07-22T13:15:38;31.96;21.42
71396;DHT22;59888;55.814;37.132;2023-07-22T13:18:04;33.50;25.21
71396;DHT22;59888;55.814;37.132;2023-07-22T13:20:30;0.00;0.00
71396;DHT22;59888;55.814;37.132;2023-07-22T13:22:57;0.00;0.00
71396;DHT22;59888;55.814;37.132;2023-07-22T13:25:23;37.00;19.09
71396;DHT22;59888;55.814;37.132;2023-07-22T13:27:49;37.46;20.66
71396;DHT22;59888;55.814;37.132;2023-07-22T13:30:15;38.19;19.33
71396;DHT22;59888;55.814;37.132;2023-07-22T13:32:41;38.88;16.03
71396;DHT22;59888;55.814;37.132;2023-07-22T13:35:07;39.36;20.18
71396;DHT22;59888;55.814;37.132;2023-07-22T13:37:35;0.00;19.40
71396;DHT22;59888;55.814;37.132;2023-07-22T13:40:02;39.24;18.22
71396;DHT22;59888;55.814;37.132;2023-07-22T13:42:30;39.12;17.80
71396;DHT22;59888;55.814;37.132;2023-07-22T13:44:57;39.18;18.33
71396;DHT22;59888;55.814;37.132;2023-07-22T13:47:23;39.79;19.41
71396;DHT22;59888;55.814;37.132;2023-07-22T13:49:52;0.00;0.00
71396;DHT22;59888;55.814;37.132;2023-07-22T13:52:18;0.00;0.00
71396;DHT22;59888;55.814;37.132;2023-07-22T13:54:44;0.00;0.00
71396;DHT22;59888;55.814;37.132;2023-07-22T13:57:13;0.00;0.00
71396;DHT22;59888;55.814;37.132;2023-07-22T13:59:40;0.00;0.00
71396;DHT22;59888;55.814;37.132;2023-07-22T14:02:05;0.00;0.00
71396;DHT22;59888;55.814;37.132;2023-07-22T14:04:33;0.00;0.00
71396;DHT22;59888;55.814;37.132;2023-07-22T14:07:00;0.00;0.00
71396;DHT22;59888;55.814;37.132;2023-07-22T14:09:41;0.00;0.00
71396;DHT22;59888;55.814;37.132;2023-07-22T14:12:08;0.00;0.00
71396;DHT22;59888;55.814;37.132;2023-07-22T14:14:34;0.00;0.00
71396;DHT22;59888;55.814;37.132;2023-07-22T14:17:00;0.00;0.00
71396;DHT22;59888;55.814;37.132;2023-07-22T14:19:27;0.00;0.00
71396;DHT22;59888;55.814;37.132;2023-07-22T14:21:53;0.00;0.00
71396;DHT22;59888;55.814;37.132;2023-07-22T14:24:19;0.00;0.00
71396;DHT22;59888;55.814;37.132;2023-07-22T14:26:47;0.00;0.00
71396;DHT22;59888;55.814;37.132;2023-07-22T14:29:13;0.00;0.00
71396;DHT22;59888;55.814;37.132;2023-07-22T14:31:42;0.00;0.00
71396;DHT22;59888;55.814;37.132;2023-07-22T14:34:12;0.00;0.00
71396;DHT22;59888;55.814;37.132;2023-07-22T14:36:39;0.00;0.00
71396;DHT22;59888;55.814;37.132;2023-07-22T14:39:05;0.00;0.00
71396;DHT22;59888;55.814;37.132;2023-07-22T14:41:32;0.00;0.00
71396;DHT22;59888;55.814;37.132;2023-07-22T14:44:00;0.00;0.00
71396;DHT22;59888;55.814;37.132;2023-07-22T14:46:26;0.00;0.00
71396;DHT22;59888;55.814;37.132;2023-07-22T14:48:53;0.00;0.00
71396;DHT22;59888;55.814;37.132;2023-07-22T14:51:21;0.00;0.00
71396;DHT22;59888;55.814;37.132;2023-07-22T14:53:51;0.00;0.00
71396;DHT22;59888;55.814;37.132;2023-07-22T14:56:18;0.00;0.00
71396;DHT22;59888;55.814;37.132;2023-07-22T14:58:47;0.00;0.00
71396;DHT22;59888;55.814;37.132;2023-07-22T15:01:20;0.00;0.00
71396;DHT22;59888;55.814;37.132;2023-07-22T15:03:48;0.00;0.00
71396;DHT22;59888;55.814;37.132;2023-07-22T15:06:14;0.00;0.00
71396;DHT22;59888;55.814;37.132;2023-07-22T15:08:44;0.00;0.00
71396;DHT22;59888;55.814;37.132;2023-07-22T15:11:10;0.00;0.00
71396;DHT22;59888;55.814;37.132;2023-07-22T15:13:36;0.00;0.00
71396;DHT22;59888;55.814;37.132;2023-07-22T15:16:02;0.00;0.00
71396;DHT22;59888;55.814;37.132;2023-07-22T15:18:29;0.00;0.00
71396;DHT22;59888;55.814;37.132;2023-07-22T15:20:55;0.00;0.00
71396;DHT22;59888;55.814;37.132;2023-07-22T15:23:21;0.00;0.00
71396;DHT22;59888;55.814;37.132;2023-07-22T15:25:48;0.00;0.00
71396;DHT22;59888;55.814;37.132;2023-07-22T15:28:14;0.00;0.00
71396;DHT22;59888;55.814;37.132;2023-07-22T15:30:41;0.00;0.00
71396;DHT22;59888;55.814;37.132;2023-07-22T15:33:08;0.00;0.00
71396;DHT22;59888;55.814;37.132;2023-07-22T15:35:34;0.00;0.00
71396;DHT22;59888;55.814;37.132;2023-07-22T15:38:00;0.00;0.00
71396;DHT22;59888;55.814;37.132;2023-07-22T15:40:26;0.00;0.00
71396;DHT22;59888;55.814;37.132;2023-07-22T15:42:59;0.00;0.00
71396;DHT22;59888;55.814;37.132;2023-07-22T15:45:25;0.00;0.00
71396;DHT22;59888;55.814;37.132;2023-07-22T15:47:51;0.00;0.00
71396;DHT22;59888;55.814;37.132;2023-07-22T15:50:17;0.00;0.00
71396;DHT22;59888;55.814;37.132;2023-07-22T15:52:44;0.00;0.00
71396;DHT22;59888;55.814;37.132;2023-07-22T15:55:10;0.00;0.00
71396;DHT22;59888;55.814;37.132;2023-07-22T15:57:36;0.00;0.00
71396;DHT22;59888;55.814;37.132;2023-07-22T16:00:02;0.00;0.00